Terminal Aerodrome Forecast
Issued by NWS

Home | Current Version | Previous Version | Text Only | Print | Product List | Glossary Off
Versions: 1 2 3 4 5 6 7 8 9 10 11 12 13 14 15

000
FTUS43 KOAX 291100
TAFCDR
TAF
KCDR 291129Z 2912/3012 09005KT P6SM SCT150
     FM291300 12005KT P6SM BKN100
      TEMPO 2913/2917 3SM BR BKN025
     FM291900 12005KT P6SM VCSH SCT050 BKN080
     FM300600 VRB04KT P6SM BKN080=

USA.gov is the U.S. government's official web portal to all federal, state and local government web resources and services.